sensor_id;sensor_type;location;lat;lon;timestamp;pressure;altitude;pressure_sealevel;temperature;humidity
75521;BME280;64102;48.628;9.002;2022-11-18T00:00:29;94284.53;;;6.00;95.41
75521;BME280;64102;48.628;9.002;2022-11-18T00:02:54;94290.44;;;5.92;95.50
75521;BME280;64102;48.628;9.002;2022-11-18T00:05:20;94295.56;;;5.92;96.13
75521;BME280;64102;48.628;9.002;2022-11-18T00:07:45;94304.03;;;5.93;95.98
75521;BME280;64102;48.628;9.002;2022-11-18T00:10:10;94298.97;;;6.01;95.97
75521;BME280;64102;48.628;9.002;2022-11-18T00:12:36;94308.63;;;6.15;94.41
75521;BME280;64102;48.628;9.002;2022-11-18T00:15:20;94317.91;;;6.16;94.29
75521;BME280;64102;48.628;9.002;2022-11-18T00:17:45;94313.56;;;6.16;94.49
75521;BME280;64102;48.628;9.002;2022-11-18T00:20:10;94315.63;;;6.13;94.50
75521;BME280;64102;48.628;9.002;2022-11-18T00:22:36;94320.75;;;6.13;94.76
75521;BME280;64102;48.628;9.002;2022-11-18T00:25:01;94314.69;;;6.14;94.60
75521;BME280;64102;48.628;9.002;2022-11-18T00:27:30;94308.28;;;6.10;94.03
75521;BME280;64102;48.628;9.002;2022-11-18T00:29:56;94316.72;;;6.02;94.69
75521;BME280;64102;48.628;9.002;2022-11-18T00:32:21;94317.03;;;5.99;95.45
75521;BME280;64102;48.628;9.002;2022-11-18T00:34:46;94311.28;;;6.05;94.52
75521;BME280;64102;48.628;9.002;2022-11-18T00:37:12;94317.03;;;5.99;94.64
75521;BME280;64102;48.628;9.002;2022-11-18T00:39:37;94316.06;;;6.00;94.49
75521;BME280;64102;48.628;9.002;2022-11-18T00:42:03;94314.31;;;6.01;94.00
75521;BME280;64102;48.628;9.002;2022-11-18T00:44:47;94313.19;;;6.03;94.07
75521;BME280;64102;48.628;9.002;2022-11-18T00:47:12;94317.19;;;5.98;95.06
75521;BME280;64102;48.628;9.002;2022-11-18T00:49:37;94309.81;;;6.03;94.60
75521;BME280;64102;48.628;9.002;2022-11-18T00:52:03;94316.72;;;6.02;94.85
75521;BME280;64102;48.628;9.002;2022-11-18T00:54:29;94311.91;;;5.99;95.04
75521;BME280;64102;48.628;9.002;2022-11-18T00:56:55;94313.03;;;5.97;95.53
75521;BME280;64102;48.628;9.002;2022-11-18T00:59:20;94306.78;;;5.99;94.53
75521;BME280;64102;48.628;9.002;2022-11-18T01:01:45;94309.19;;;6.01;94.97
75521;BME280;64102;48.628;9.002;2022-11-18T01:04:12;94307.59;;;6.00;95.26
75521;BME280;64102;48.628;9.002;2022-11-18T01:06:38;94317.66;;;5.93;95.17
75521;BME280;64102;48.628;9.002;2022-11-18T01:09:03;94317.03;;;5.99;95.13
75521;BME280;64102;48.628;9.002;2022-11-18T01:11:28;94320.38;;;6.00;94.75
75521;BME280;64102;48.628;9.002;2022-11-18T01:14:23;94311.91;;;5.99;95.21
75521;BME280;64102;48.628;9.002;2022-11-18T01:16:49;94315.41;;;5.98;95.48
75521;BME280;64102;48.628;9.002;2022-11-18T01:19:17;94318.16;;;5.97;95.66
75521;BME280;64102;48.628;9.002;2022-11-18T01:21:43;94321.03;;;5.94;95.77
75521;BME280;64102;48.628;9.002;2022-11-18T01:24:08;94325.47;;;5.92;95.76
75521;BME280;64102;48.628;9.002;2022-11-18T01:26:34;94318.28;;;5.95;95.72
75521;BME280;64102;48.628;9.002;2022-11-18T01:28:59;94329.00;;;5.99;95.22
75521;BME280;64102;48.628;9.002;2022-11-18T01:31:24;94330.13;;;5.96;95.65
75521;BME280;64102;48.628;9.002;2022-11-18T01:33:50;94337.16;;;5.94;94.88
75521;BME280;64102;48.628;9.002;2022-11-18T01:36:21;94337.84;;;6.04;95.25
75521;BME280;64102;48.628;9.002;2022-11-18T01:38:47;94338.66;;;6.05;94.98
75521;BME280;64102;48.628;9.002;2022-11-18T01:41:13;94340.09;;;6.07;94.68
75521;BME280;64102;48.628;9.002;2022-11-18T01:44:56;94346.47;;;6.03;95.17
75521;BME280;64102;48.628;9.002;2022-11-18T01:46:50;94346.34;;;6.05;95.25
75521;BME280;64102;48.628;9.002;2022-11-18T01:49:16;94343.13;;;6.03;94.85
75521;BME280;64102;48.628;9.002;2022-11-18T01:51:56;94352.84;;;5.99;94.75
75521;BME280;64102;48.628;9.002;2022-11-18T01:54:26;94356.53;;;5.97;95.63
75521;BME280;64102;48.628;9.002;2022-11-18T01:56:57;94343.25;;;5.93;95.32
75521;BME280;64102;48.628;9.002;2022-11-18T01:59:27;94353.66;;;6.00;95.33
75521;BME280;64102;48.628;9.002;2022-11-18T02:01:55;94350.47;;;5.98;95.27
75521;BME280;64102;48.628;9.002;2022-11-18T02:04:20;94355.41;;;5.99;94.86
75521;BME280;64102;48.628;9.002;2022-11-18T02:06:47;94347.25;;;5.96;95.78
75521;BME280;64102;48.628;9.002;2022-11-18T02:09:14;94352.38;;;5.96;95.62
75521;BME280;64102;48.628;9.002;2022-11-18T02:11:41;94357.34;;;5.97;95.92
75521;BME280;64102;48.628;9.002;2022-11-18T02:14:18;94350.78;;;6.03;95.71
75521;BME280;64102;48.628;9.002;2022-11-18T02:26:25;94363.28;;;5.98;95.57
75521;BME280;64102;48.628;9.002;2022-11-18T02:29:09;94353.34;;;6.03;95.88
75521;BME280;64102;48.628;9.002;2022-11-18T02:37:18;94366.63;;;5.98;95.88
75521;BME280;64102;48.628;9.002;2022-11-18T02:39:52;94355.28;;;6.01;96.09
75521;BME280;64102;48.628;9.002;2022-11-18T02:42:19;94348.22;;;6.03;95.49
75521;BME280;64102;48.628;9.002;2022-11-18T02:44:50;94357.34;;;5.97;95.45
75521;BME280;64102;48.628;9.002;2022-11-18T02:47:17;94355.84;;;5.87;96.01
75521;BME280;64102;48.628;9.002;2022-11-18T02:49:47;94355.97;;;5.85;96.47
75521;BME280;64102;48.628;9.002;2022-11-18T02:52:15;94354.03;;;5.79;96.11
75521;BME280;64102;48.628;9.002;2022-11-18T02:54:43;94358.47;;;5.77;96.63
75521;BME280;64102;48.628;9.002;2022-11-18T02:57:12;94360.13;;;5.86;96.40
75521;BME280;64102;48.628;9.002;2022-11-18T02:59:38;94358.91;;;5.90;96.40
75521;BME280;64102;48.628;9.002;2022-11-18T03:02:04;94363.88;;;5.92;95.92
75521;BME280;64102;48.628;9.002;2022-11-18T03:04:30;94369.13;;;5.90;96.07
75521;BME280;64102;48.628;9.002;2022-11-18T03:09:43;94375.66;;;5.84;96.02
75521;BME280;64102;48.628;9.002;2022-11-18T03:12:45;94382.53;;;5.84;96.49
75521;BME280;64102;48.628;9.002;2022-11-18T03:17:55;94392.41;;;5.79;96.65
75521;BME280;64102;48.628;9.002;2022-11-18T03:23:08;94389.97;;;5.95;96.17
75521;BME280;64102;48.628;9.002;2022-11-18T03:28:13;94405.00;;;5.98;95.69
75521;BME280;64102;48.628;9.002;2022-11-18T03:30:52;94408.38;;;5.99;95.94
75521;BME280;64102;48.628;9.002;2022-11-18T03:33:21;94405.69;;;6.00;95.62
75521;BME280;64102;48.628;9.002;2022-11-18T03:35:51;94416.81;;;5.91;96.15
75521;BME280;64102;48.628;9.002;2022-11-18T03:38:23;94419.94;;;5.85;96.26
75521;BME280;64102;48.628;9.002;2022-11-18T03:40:54;94424.00;;;5.88;96.09
75521;BME280;64102;48.628;9.002;2022-11-18T03:43:22;94425.63;;;5.89;96.14
75521;BME280;64102;48.628;9.002;2022-11-18T03:45:57;94428.31;;;5.87;96.52
75521;BME280;64102;48.628;9.002;2022-11-18T03:48:29;94433.50;;;5.95;96.78
75521;BME280;64102;48.628;9.002;2022-11-18T03:50:59;94431.59;;;5.97;96.35
75521;BME280;64102;48.628;9.002;2022-11-18T03:53:27;94435.94;;;6.05;96.26
75521;BME280;64102;48.628;9.002;2022-11-18T03:56:01;94438.00;;;6.01;96.49
75521;BME280;64102;48.628;9.002;2022-11-18T03:58:41;94447.94;;;6.04;95.83
75521;BME280;64102;48.628;9.002;2022-11-18T04:01:20;94445.88;;;6.08;95.69
75521;BME280;64102;48.628;9.002;2022-11-18T04:03:49;94449.25;;;6.08;95.77
75521;BME280;64102;48.628;9.002;2022-11-18T04:06:30;94455.75;;;6.03;95.47
75521;BME280;64102;48.628;9.002;2022-11-18T04:08:59;94463.00;;;6.07;95.85
75521;BME280;64102;48.628;9.002;2022-11-18T04:11:31;94469.22;;;6.05;95.65
75521;BME280;64102;48.628;9.002;2022-11-18T04:14:17;94465.38;;;6.01;95.11
75521;BME280;64102;48.628;9.002;2022-11-18T04:16:49;94468.25;;;5.98;94.47
75521;BME280;64102;48.628;9.002;2022-11-18T04:19:14;94468.03;;;5.91;94.48
75521;BME280;64102;48.628;9.002;2022-11-18T04:21:40;94468.47;;;5.87;94.43
75521;BME280;64102;48.628;9.002;2022-11-18T04:24:05;94471.75;;;5.79;94.47
75521;BME280;64102;48.628;9.002;2022-11-18T04:26:31;94474.59;;;5.76;94.08
75521;BME280;64102;48.628;9.002;2022-11-18T04:28:56;94473.00;;;5.75;94.60
75521;BME280;64102;48.628;9.002;2022-11-18T04:31:22;94478.25;;;5.73;95.23
75521;BME280;64102;48.628;9.002;2022-11-18T04:33:47;94487.63;;;5.65;95.45
75521;BME280;64102;48.628;9.002;2022-11-18T04:36:12;94488.75;;;5.62;95.40
75521;BME280;64102;48.628;9.002;2022-11-18T04:38:38;94488.44;;;5.65;96.22
75521;BME280;64102;48.628;9.002;2022-11-18T04:41:03;94491.38;;;5.70;95.63
75521;BME280;64102;48.628;9.002;2022-11-18T04:43:28;94496.03;;;5.75;95.84
75521;BME280;64102;48.628;9.002;2022-11-18T04:45:54;94487.19;;;5.69;95.49
75521;BME280;64102;48.628;9.002;2022-11-18T04:48:19;94499.31;;;5.67;96.22
75521;BME280;64102;48.628;9.002;2022-11-18T04:50:44;94495.00;;;5.68;96.18
75521;BME280;64102;48.628;9.002;2022-11-18T04:53:10;94498.25;;;5.70;95.44
75521;BME280;64102;48.628;9.002;2022-11-18T04:55:36;94493.88;;;5.62;95.53
75521;BME280;64102;48.628;9.002;2022-11-18T04:58:02;94501.09;;;5.67;94.59
75521;BME280;64102;48.628;9.002;2022-11-18T05:00:27;94495.19;;;5.66;95.52
75521;BME280;64102;48.628;9.002;2022-11-18T05:02:52;94493.69;;;5.64;94.98
75521;BME280;64102;48.628;9.002;2022-11-18T05:05:18;94497.72;;;5.66;94.98
75521;BME280;64102;48.628;9.002;2022-11-18T05:07:43;94498.19;;;5.62;95.24
75521;BME280;64102;48.628;9.002;2022-11-18T05:10:09;94500.06;;;5.60;95.19
75521;BME280;64102;48.628;9.002;2022-11-18T05:12:35;94497.00;;;5.56;95.59
75521;BME280;64102;48.628;9.002;2022-11-18T05:15:20;94505.47;;;5.57;95.21
75521;BME280;64102;48.628;9.002;2022-11-18T05:17:48;94504.16;;;5.53;95.96
75521;BME280;64102;48.628;9.002;2022-11-18T05:20:14;94509.44;;;5.51;96.15
75521;BME280;64102;48.628;9.002;2022-11-18T05:22:39;94507.69;;;5.52;96.48
75521;BME280;64102;48.628;9.002;2022-11-18T05:25:05;94508.84;;;5.57;95.53
75521;BME280;64102;48.628;9.002;2022-11-18T05:27:31;94513.00;;;5.58;95.23
75521;BME280;64102;48.628;9.002;2022-11-18T05:29:56;94517.16;;;5.59;94.60
75521;BME280;64102;48.628;9.002;2022-11-18T05:32:22;94522.72;;;5.55;94.51
75521;BME280;64102;48.628;9.002;2022-11-18T05:34:47;94524.34;;;5.56;94.45
75521;BME280;64102;48.628;9.002;2022-11-18T05:37:13;94527.19;;;5.53;94.54
75521;BME280;64102;48.628;9.002;2022-11-18T05:39:38;94534.34;;;5.49;94.50
75521;BME280;64102;48.628;9.002;2022-11-18T05:42:04;94537.06;;;5.48;94.50
75521;BME280;64102;48.628;9.002;2022-11-18T05:44:48;94538.69;;;5.49;94.79
75521;BME280;64102;48.628;9.002;2022-11-18T05:47:14;94545.38;;;5.50;94.88
75521;BME280;64102;48.628;9.002;2022-11-18T05:49:40;94544.56;;;5.49;94.68
75521;BME280;64102;48.628;9.002;2022-11-18T05:52:06;94545.69;;;5.47;94.38
75521;BME280;64102;48.628;9.002;2022-11-18T05:54:31;94537.31;;;5.45;94.50
75521;BME280;64102;48.628;9.002;2022-11-18T05:56:57;94544.66;;;5.39;94.45
75521;BME280;64102;48.628;9.002;2022-11-18T05:59:22;94547.84;;;5.41;94.29
75521;BME280;64102;48.628;9.002;2022-11-18T06:01:57;94549.22;;;5.36;94.92
75521;BME280;64102;48.628;9.002;2022-11-18T06:04:36;94547.34;;;5.38;95.09
75521;BME280;64102;48.628;9.002;2022-11-18T06:07:06;94546.97;;;5.33;94.68
75521;BME280;64102;48.628;9.002;2022-11-18T06:09:35;94554.00;;;5.31;95.35
75521;BME280;64102;48.628;9.002;2022-11-18T06:12:03;94552.53;;;5.28;94.79
75521;BME280;64102;48.628;9.002;2022-11-18T06:14:44;94557.63;;;5.28;94.61
75521;BME280;64102;48.628;9.002;2022-11-18T06:17:15;94560.88;;;5.30;94.18
75521;BME280;64102;48.628;9.002;2022-11-18T06:19:42;94560.88;;;5.30;93.82
75521;BME280;64102;48.628;9.002;2022-11-18T06:22:08;94565.97;;;5.30;93.92
75521;BME280;64102;48.628;9.002;2022-11-18T06:24:34;94572.84;;;5.30;93.99
75521;BME280;64102;48.628;9.002;2022-11-18T06:27:00;94575.41;;;5.30;93.86
75521;BME280;64102;48.628;9.002;2022-11-18T06:29:26;94582.69;;;5.25;94.67
75521;BME280;64102;48.628;9.002;2022-11-18T06:31:51;94583.78;;;5.22;94.88
75521;BME280;64102;48.628;9.002;2022-11-18T06:34:17;94579.47;;;5.23;94.07
75521;BME280;64102;48.628;9.002;2022-11-18T06:36:42;94582.84;;;5.23;94.70
75521;BME280;64102;48.628;9.002;2022-11-18T06:39:07;94583.63;;;5.24;94.80
75521;BME280;64102;48.628;9.002;2022-11-18T06:41:33;94587.13;;;5.23;93.87
75521;BME280;64102;48.628;9.002;2022-11-18T06:43:58;94583.13;;;5.20;93.93
75521;BME280;64102;48.628;9.002;2022-11-18T06:46:24;94589.84;;;5.21;93.85
75521;BME280;64102;48.628;9.002;2022-11-18T06:49:08;94601.03;;;5.20;93.69
75521;BME280;64102;48.628;9.002;2022-11-18T06:51:33;94593.50;;;5.19;93.58
75521;BME280;64102;48.628;9.002;2022-11-18T06:54:02;94608.03;;;5.18;94.24
75521;BME280;64102;48.628;9.002;2022-11-18T06:56:34;94608.03;;;5.18;93.76
75521;BME280;64102;48.628;9.002;2022-11-18T06:59:00;94612.19;;;5.19;93.59
75521;BME280;64102;48.628;9.002;2022-11-18T07:01:28;94613.81;;;5.20;93.86
75521;BME280;64102;48.628;9.002;2022-11-18T07:03:56;94614.09;;;5.17;93.98
75521;BME280;64102;48.628;9.002;2022-11-18T07:06:25;94610.22;;;5.13;94.96
75521;BME280;64102;48.628;9.002;2022-11-18T07:08:51;94624.03;;;5.20;93.54
75521;BME280;64102;48.628;9.002;2022-11-18T07:11:19;94627.41;;;5.21;93.85
75521;BME280;64102;48.628;9.002;2022-11-18T07:13:45;94624.69;;;5.22;94.05
75521;BME280;64102;48.628;9.002;2022-11-18T07:16:12;94634.25;;;5.20;94.03
75521;BME280;64102;48.628;9.002;2022-11-18T07:18:39;94628.44;;;5.28;94.02
75521;BME280;64102;48.628;9.002;2022-11-18T07:21:14;94624.66;;;5.32;93.72
75521;BME280;64102;48.628;9.002;2022-11-18T07:23:40;94629.91;;;5.30;93.79
75521;BME280;64102;48.628;9.002;2022-11-18T07:26:06;94635.03;;;5.30;94.41
75521;BME280;64102;48.628;9.002;2022-11-18T07:28:32;94639.44;;;5.38;93.57
75521;BME280;64102;48.628;9.002;2022-11-18T07:33:31;94648.00;;;5.47;93.35
75521;BME280;64102;48.628;9.002;2022-11-18T07:36:14;94654.56;;;5.49;92.77
75521;BME280;64102;48.628;9.002;2022-11-18T07:38:40;94657.13;;;5.49;92.70
75521;BME280;64102;48.628;9.002;2022-11-18T07:41:11;94662.78;;;5.53;92.58
75521;BME280;64102;48.628;9.002;2022-11-18T07:43:37;94676.75;;;5.58;93.20
75521;BME280;64102;48.628;9.002;2022-11-18T07:46:19;94674.72;;;5.62;93.16
75521;BME280;64102;48.628;9.002;2022-11-18T07:48:47;94683.06;;;5.64;93.27
75521;BME280;64102;48.628;9.002;2022-11-18T07:51:14;94678.31;;;5.69;93.10
75521;BME280;64102;48.628;9.002;2022-11-18T07:53:41;94681.91;;;5.76;91.85
75521;BME280;64102;48.628;9.002;2022-11-18T07:56:07;94686.25;;;5.75;92.41
75521;BME280;64102;48.628;9.002;2022-11-18T07:58:34;94684.31;;;5.77;91.30
75521;BME280;64102;48.628;9.002;2022-11-18T08:01:26;94692.94;;;5.76;92.25
75521;BME280;64102;48.628;9.002;2022-11-18T08:03:53;94689.31;;;5.79;92.54
75521;BME280;64102;48.628;9.002;2022-11-18T08:06:19;94691.44;;;5.83;91.75
75521;BME280;64102;48.628;9.002;2022-11-18T08:08:45;94698.00;;;5.86;92.25
75521;BME280;64102;48.628;9.002;2022-11-18T08:11:13;94700.34;;;5.89;91.82
75521;BME280;64102;48.628;9.002;2022-11-18T08:13:38;94701.41;;;5.87;92.06
75521;BME280;64102;48.628;9.002;2022-11-18T08:16:14;94704.06;;;5.85;92.38
75521;BME280;64102;48.628;9.002;2022-11-18T08:18:39;94705.69;;;5.86;91.82
75521;BME280;64102;48.628;9.002;2022-11-18T08:21:05;94712.97;;;5.91;91.76
75521;BME280;64102;48.628;9.002;2022-11-18T08:23:31;94712.03;;;5.92;91.75
75521;BME280;64102;48.628;9.002;2022-11-18T08:26:07;94713.34;;;5.96;91.21
75521;BME280;64102;48.628;9.002;2022-11-18T08:28:33;94713.34;;;5.96;90.92
75521;BME280;64102;48.628;9.002;2022-11-18T08:30:59;94720.53;;;5.92;91.65
75521;BME280;64102;48.628;9.002;2022-11-18T08:33:24;94718.03;;;6.00;90.39
75521;BME280;64102;48.628;9.002;2022-11-18T08:35:50;94721.72;;;5.98;90.58
75521;BME280;64102;48.628;9.002;2022-11-18T08:38:16;94729.59;;;6.04;89.93
75521;BME280;64102;48.628;9.002;2022-11-18T08:40:44;94729.59;;;6.04;89.14
75521;BME280;64102;48.628;9.002;2022-11-18T08:43:11;94727.84;;;6.05;90.03
75521;BME280;64102;48.628;9.002;2022-11-18T08:45:38;94733.47;;;6.08;89.52
75521;BME280;64102;48.628;9.002;2022-11-18T08:48:04;94735.22;;;6.08;89.79
75521;BME280;64102;48.628;9.002;2022-11-18T08:50:29;94733.84;;;6.13;89.29
75521;BME280;64102;48.628;9.002;2022-11-18T08:52:54;94735.03;;;6.19;88.50
75521;BME280;64102;48.628;9.002;2022-11-18T08:55:23;94739.06;;;6.21;88.54
75521;BME280;64102;48.628;9.002;2022-11-18T08:57:51;94746.75;;;6.21;88.14
75521;BME280;64102;48.628;9.002;2022-11-18T09:00:17;94741.63;;;6.21;88.01
75521;BME280;64102;48.628;9.002;2022-11-18T09:02:43;94743.53;;;6.19;89.02
75521;BME280;64102;48.628;9.002;2022-11-18T09:05:08;94745.72;;;6.14;89.17
75521;BME280;64102;48.628;9.002;2022-11-18T09:07:33;94746.22;;;6.18;88.68
75521;BME280;64102;48.628;9.002;2022-11-18T09:09:59;94753.78;;;6.19;89.40
75521;BME280;64102;48.628;9.002;2022-11-18T09:12:24;94756.03;;;6.22;88.78
75521;BME280;64102;48.628;9.002;2022-11-18T09:14:49;94755.09;;;6.23;89.02
75521;BME280;64102;48.628;9.002;2022-11-18T09:17:15;94761.31;;;6.21;89.88
75521;BME280;64102;48.628;9.002;2022-11-18T09:19:40;94757.06;;;6.29;89.95
75521;BME280;64102;48.628;9.002;2022-11-18T09:22:09;94760.16;;;6.33;88.90
75521;BME280;64102;48.628;9.002;2022-11-18T09:24:34;94756.06;;;6.40;90.22
75521;BME280;64102;48.628;9.002;2022-11-18T09:27:04;94759.19;;;6.52;89.08
75521;BME280;64102;48.628;9.002;2022-11-18T09:29:31;94751.88;;;6.57;89.30
75521;BME280;64102;48.628;9.002;2022-11-18T09:31:56;94761.19;;;6.58;88.57
75521;BME280;64102;48.628;9.002;2022-11-18T09:34:22;94763.31;;;6.62;89.17
75521;BME280;64102;48.628;9.002;2022-11-18T09:36:48;94766.53;;;6.64;89.05
75521;BME280;64102;48.628;9.002;2022-11-18T09:39:13;94765.13;;;6.70;89.15
75521;BME280;64102;48.628;9.002;2022-11-18T09:41:47;94762.28;;;6.73;88.66
75521;BME280;64102;48.628;9.002;2022-11-18T09:49:42;94771.19;;;7.04;87.97
75521;BME280;64102;48.628;9.002;2022-11-18T09:52:19;94775.47;;;6.96;88.58
75521;BME280;64102;48.628;9.002;2022-11-18T09:54:46;94779.34;;;7.00;88.78
75521;BME280;64102;48.628;9.002;2022-11-18T09:57:22;94780.03;;;7.10;88.31
75521;BME280;64102;48.628;9.002;2022-11-18T09:59:48;94781.78;;;7.27;87.92
75521;BME280;64102;48.628;9.002;2022-11-18T10:16:32;94785.22;;;8.03;84.97
75521;BME280;64102;48.628;9.002;2022-11-18T10:24:49;94801.22;;;7.89;84.75
75521;BME280;64102;48.628;9.002;2022-11-18T10:27:16;94805.44;;;7.98;85.76
75521;BME280;64102;48.628;9.002;2022-11-18T10:29:43;94799.09;;;8.27;84.72
75521;BME280;64102;48.628;9.002;2022-11-18T10:32:12;94795.41;;;8.87;80.73
75521;BME280;64102;48.628;9.002;2022-11-18T10:34:47;94798.97;;;9.19;79.61
75521;BME280;64102;48.628;9.002;2022-11-18T10:39:56;94800.19;;;8.58;79.36
75521;BME280;64102;48.628;9.002;2022-11-18T10:44:55;94813.63;;;8.36;81.99
75521;BME280;64102;48.628;9.002;2022-11-18T10:47:38;94803.28;;;8.20;81.78
75521;BME280;64102;48.628;9.002;2022-11-18T10:50:28;94806.94;;;8.17;82.96
75521;BME280;64102;48.628;9.002;2022-11-18T10:52:54;94807.88;;;8.08;84.48
75521;BME280;64102;48.628;9.002;2022-11-18T10:55:23;94820.50;;;7.93;85.59
75521;BME280;64102;48.628;9.002;2022-11-18T10:58:08;94819.56;;;7.69;87.40
75521;BME280;64102;48.628;9.002;2022-11-18T11:00:46;94809.56;;;7.57;87.36
75521;BME280;64102;48.628;9.002;2022-11-18T11:03:30;94812.56;;;7.53;86.15
75521;BME280;64102;48.628;9.002;2022-11-18T11:11:42;94826.53;;;7.33;88.58
75521;BME280;64102;48.628;9.002;2022-11-18T11:14:35;94826.44;;;7.42;87.83
75521;BME280;64102;48.628;9.002;2022-11-18T11:17:11;94830.94;;;7.40;88.30
75521;BME280;64102;48.628;9.002;2022-11-18T11:22:28;94824.50;;;7.96;85.71
75521;BME280;64102;48.628;9.002;2022-11-18T11:24:57;94825.72;;;8.09;85.22
75521;BME280;64102;48.628;9.002;2022-11-18T11:30:21;94829.50;;;7.97;84.93
75521;BME280;64102;48.628;9.002;2022-11-18T11:39:11;94827.97;;;8.46;81.73
75521;BME280;64102;48.628;9.002;2022-11-18T11:41:50;94840.00;;;8.38;81.38
75521;BME280;64102;48.628;9.002;2022-11-18T11:47:12;94835.25;;;8.67;79.72
75521;BME280;64102;48.628;9.002;2022-11-18T11:50:11;94842.84;;;8.93;80.11
75521;BME280;64102;48.628;9.002;2022-11-18T11:55:50;94847.22;;;9.01;78.70
75521;BME280;64102;48.628;9.002;2022-11-18T11:58:39;94844.94;;;8.89;74.05
75521;BME280;64102;48.628;9.002;2022-11-18T12:01:41;94845.88;;;8.88;75.15
75521;BME280;64102;48.628;9.002;2022-11-18T12:06:45;94846.69;;;8.89;77.57
75521;BME280;64102;48.628;9.002;2022-11-18T12:14:55;94846.47;;;8.58;76.51
75521;BME280;64102;48.628;9.002;2022-11-18T12:17:31;94844.63;;;8.34;77.23
75521;BME280;64102;48.628;9.002;2022-11-18T12:20:34;94850.94;;;8.14;78.48
75521;BME280;64102;48.628;9.002;2022-11-18T12:33:56;94855.97;;;8.24;78.57
75521;BME280;64102;48.628;9.002;2022-11-18T12:36:35;94866.91;;;8.26;79.68
75521;BME280;64102;48.628;9.002;2022-11-18T12:41:58;94867.09;;;8.32;76.05
75521;BME280;64102;48.628;9.002;2022-11-18T12:44:44;94862.00;;;8.40;74.81
75521;BME280;64102;48.628;9.002;2022-11-18T12:54:55;94855.53;;;8.78;72.83
75521;BME280;64102;48.628;9.002;2022-11-18T12:57:28;94861.63;;;8.69;73.11
75521;BME280;64102;48.628;9.002;2022-11-18T12:59:54;94856.94;;;8.57;74.23
75521;BME280;64102;48.628;9.002;2022-11-18T13:02:25;94863.75;;;8.40;74.02
75521;BME280;64102;48.628;9.002;2022-11-18T13:05:09;94865.19;;;8.34;74.64
75521;BME280;64102;48.628;9.002;2022-11-18T13:07:58;94872.97;;;8.17;73.93
75521;BME280;64102;48.628;9.002;2022-11-18T13:13:22;94872.38;;;7.97;75.82
75521;BME280;64102;48.628;9.002;2022-11-18T13:15:49;94870.94;;;7.94;76.30
75521;BME280;64102;48.628;9.002;2022-11-18T13:18:33;94872.28;;;8.06;75.91
75521;BME280;64102;48.628;9.002;2022-11-18T13:21:00;94877.69;;;8.03;76.49
75521;BME280;64102;48.628;9.002;2022-11-18T13:23:48;94878.94;;;7.99;76.56
75521;BME280;64102;48.628;9.002;2022-11-18T13:34:27;94893.91;;;8.04;75.05
75521;BME280;64102;48.628;9.002;2022-11-18T13:36:54;94894.31;;;7.91;75.80
75521;BME280;64102;48.628;9.002;2022-11-18T13:39:31;94888.03;;;7.86;74.70
75521;BME280;64102;48.628;9.002;2022-11-18T13:44:50;94892.13;;;7.71;76.16
75521;BME280;64102;48.628;9.002;2022-11-18T13:47:33;94891.81;;;7.74;76.07
75521;BME280;64102;48.628;9.002;2022-11-18T13:55:24;94896.38;;;7.62;75.87
75521;BME280;64102;48.628;9.002;2022-11-18T13:58:03;94898.00;;;7.63;76.58
75521;BME280;64102;48.628;9.002;2022-11-18T14:00:32;94903.91;;;7.63;76.69
75521;BME280;64102;48.628;9.002;2022-11-18T14:03:23;94904.81;;;7.54;76.95
75521;BME280;64102;48.628;9.002;2022-11-18T14:05:52;94900.94;;;7.50;76.65
75521;BME280;64102;48.628;9.002;2022-11-18T14:08:32;94902.72;;;7.50;77.65
75521;BME280;64102;48.628;9.002;2022-11-18T14:10:58;94900.44;;;7.47;77.35
75521;BME280;64102;48.628;9.002;2022-11-18T14:13:30;94902.34;;;7.45;77.95
75521;BME280;64102;48.628;9.002;2022-11-18T14:15:57;94911.38;;;7.49;77.43
75521;BME280;64102;48.628;9.002;2022-11-18T14:18:34;94914.59;;;7.51;77.59
75521;BME280;64102;48.628;9.002;2022-11-18T14:21:01;94906.53;;;7.89;77.18
75521;BME280;64102;48.628;9.002;2022-11-18T14:23:30;94905.53;;;8.34;75.16
75521;BME280;64102;48.628;9.002;2022-11-18T14:25:58;94910.53;;;8.18;75.68
75521;BME280;64102;48.628;9.002;2022-11-18T14:28:30;94910.03;;;8.14;75.23
75521;BME280;64102;48.628;9.002;2022-11-18T14:31:27;94905.38;;;8.18;75.33
75521;BME280;64102;48.628;9.002;2022-11-18T14:34:16;94912.19;;;8.27;74.21
75521;BME280;64102;48.628;9.002;2022-11-18T14:36:46;94908.38;;;8.31;72.55
75521;BME280;64102;48.628;9.002;2022-11-18T14:39:21;94912.03;;;8.28;73.35
75521;BME280;64102;48.628;9.002;2022-11-18T14:41:47;94908.41;;;8.13;74.14
75521;BME280;64102;48.628;9.002;2022-11-18T14:44:13;94920.72;;;8.01;74.07
75521;BME280;64102;48.628;9.002;2022-11-18T14:46:39;94920.09;;;7.82;74.53
75521;BME280;64102;48.628;9.002;2022-11-18T14:49:10;94922.69;;;7.64;74.73
75521;BME280;64102;48.628;9.002;2022-11-18T14:51:36;94921.47;;;7.50;75.28
75521;BME280;64102;48.628;9.002;2022-11-18T14:54:02;94920.59;;;7.42;75.54
75521;BME280;64102;48.628;9.002;2022-11-18T14:56:31;94925.16;;;7.30;76.50
75521;BME280;64102;48.628;9.002;2022-11-18T14:58:58;94924.94;;;7.24;76.35
75521;BME280;64102;48.628;9.002;2022-11-18T15:01:24;94926.34;;;7.18;76.96
75521;BME280;64102;48.628;9.002;2022-11-18T15:03:52;94933.66;;;7.13;76.27
75521;BME280;64102;48.628;9.002;2022-11-18T15:06:19;94944.50;;;7.07;77.34
75521;BME280;64102;48.628;9.002;2022-11-18T15:08:47;94940.75;;;7.01;77.48
75521;BME280;64102;48.628;9.002;2022-11-18T15:11:13;94943.09;;;6.95;78.17
75521;BME280;64102;48.628;9.002;2022-11-18T15:13:39;94944.16;;;6.92;78.87
75521;BME280;64102;48.628;9.002;2022-11-18T15:16:12;94950.53;;;6.88;79.50
75521;BME280;64102;48.628;9.002;2022-11-18T15:18:38;94949.84;;;6.96;79.38
75521;BME280;64102;48.628;9.002;2022-11-18T15:21:04;94944.16;;;6.92;79.40
75521;BME280;64102;48.628;9.002;2022-11-18T15:23:30;94957.59;;;6.86;80.01
75521;BME280;64102;48.628;9.002;2022-11-18T15:25:55;94949.00;;;6.78;80.43
75521;BME280;64102;48.628;9.002;2022-11-18T15:28:20;94954.47;;;6.65;81.62
75521;BME280;64102;48.628;9.002;2022-11-18T15:30:46;94951.53;;;6.60;81.66
75521;BME280;64102;48.628;9.002;2022-11-18T15:33:11;94955.03;;;6.59;82.50
75521;BME280;64102;48.628;9.002;2022-11-18T15:35:36;94956.66;;;6.60;82.45